Time;durP1;ratioP1;P1;durP2;ratioP2;P2;SDS_P1;SDS_P2;PMS_P1;PMS_P2;Temp;Humidity;BMP_temperature;BMP_pressure;BME280_temperature;BME280_humidity;BME280_pressure;Samples;Min_cycle;Max_cycle;Signal;HPM_P1;HPM_P2
2023/07/02 00:01:14;;;;;;;0.20;0.10;;;;;;;;;;5045512;28;20033;-81
2023/07/02 00:03:40;;;;;;;0.20;0.10;;;;;;;;;;5021594;28;20087;-81
2023/07/02 00:06:07;;;;;;;0.20;0.10;;;;;;;;;;5042298;28;20037;-80
2023/07/02 00:08:33;;;;;;;0.20;0.10;;;;;;;;;;5047721;28;20033;-81
2023/07/02 00:10:59;;;;;;;0.20;0.10;;;;;;;;;;5028340;28;20126;-80
2023/07/02 00:13:25;;;;;;;2.92;0.30;;;;;;;;;;5057084;28;20281;-81
2023/07/02 00:15:51;;;;;;;0.20;0.20;;;;;;;;;;5018450;28;20465;-81
2023/07/02 00:18:17;;;;;;;0.20;0.10;;;;;;;;;;5045699;28;20406;-80
2023/07/02 00:20:43;;;;;;;0.20;0.10;;;;;;;;;;5042707;28;20032;-81
2023/07/02 00:23:10;;;;;;;0.20;0.10;;;;;;;;;;5044729;28;20107;-81
2023/07/02 00:25:39;;;;;;;0.30;0.22;;;;;;;;;;5046627;28;20028;-82
2023/07/02 00:28:05;;;;;;;0.20;0.10;;;;;;;;;;5039968;28;20033;-80
2023/07/02 00:30:31;;;;;;;0.20;0.10;;;;;;;;;;5042787;28;20689;-81
2023/07/02 00:32:57;;;;;;;0.20;0.10;;;;;;;;;;5045165;28;20041;-79
2023/07/02 00:35:23;;;;;;;0.20;0.10;;;;;;;;;;5022690;28;20063;-81
2023/07/02 00:37:49;;;;;;;0.20;0.10;;;;;;;;;;5045232;28;20044;-79
2023/07/02 00:40:16;;;;;;;0.20;0.10;;;;;;;;;;5037340;28;20116;-81
2023/07/02 00:42:42;;;;;;;0.20;0.10;;;;;;;;;;5026557;28;20041;-82
2023/07/02 00:45:08;;;;;;;0.20;0.10;;;;;;;;;;5042318;28;20041;-82
2023/07/02 00:47:34;;;;;;;0.20;0.10;;;;;;;;;;5040286;28;20052;-81
2023/07/02 00:50:01;;;;;;;0.20;0.10;;;;;;;;;;5040397;28;20039;-81
2023/07/02 00:52:27;;;;;;;0.20;0.10;;;;;;;;;;5042683;28;20048;-82
2023/07/02 00:54:53;;;;;;;0.20;0.10;;;;;;;;;;5042010;28;20528;-84
2023/07/02 00:57:19;;;;;;;0.20;0.10;;;;;;;;;;5029368;28;20163;-87
2023/07/02 00:59:45;;;;;;;0.20;0.20;;;;;;;;;;5019072;28;20059;-81
2023/07/02 01:02:12;;;;;;;0.30;0.20;;;;;;;;;;5045531;28;20045;-81
2023/07/02 01:04:39;;;;;;;0.20;0.10;;;;;;;;;;5044926;28;20520;-81
2023/07/02 01:07:09;;;;;;;0.95;0.30;;;;;;;;;;5037872;28;20041;-81
2023/07/02 01:09:35;;;;;;;0.20;0.10;;;;;;;;;;5045561;28;20040;-82
2023/07/02 01:12:05;;;;;;;0.20;0.10;;;;;;;;;;5026686;28;20128;-81
2023/07/02 01:14:33;;;;;;;1.10;0.30;;;;;;;;;;5049119;28;20577;-81
2023/07/02 01:17:00;;;;;;;0.40;0.32;;;;;;;;;;5044271;28;20520;-82
2023/07/02 01:19:45;;;;;;;0.20;0.10;;;;;;;;;;5026317;28;20777;-82
2023/07/02 01:22:12;;;;;;;0.20;0.10;;;;;;;;;;5041286;28;20040;-82
2023/07/02 01:24:39;;;;;;;0.20;0.20;;;;;;;;;;5059801;22;20087;-81
2023/07/02 01:27:05;;;;;;;0.20;0.10;;;;;;;;;;5048428;28;20039;-81
2023/07/02 01:29:31;;;;;;;0.25;0.20;;;;;;;;;;5058291;28;20033;-81
2023/07/02 01:31:58;;;;;;;0.20;0.10;;;;;;;;;;5053034;28;20524;-81
2023/07/02 01:34:24;;;;;;;0.20;0.10;;;;;;;;;;5054565;28;20484;-82
2023/07/02 01:36:50;;;;;;;0.20;0.10;;;;;;;;;;5028432;28;20044;-81
2023/07/02 01:39:16;;;;;;;0.20;0.10;;;;;;;;;;5027803;28;20039;-81
2023/07/02 01:41:52;;;;;;;0.20;0.13;;;;;;;;;;5049899;28;20504;-81
2023/07/02 01:44:18;;;;;;;0.20;0.00;;;;;;;;;;5047492;28;20048;-81
2023/07/02 01:46:48;;;;;;;0.20;0.00;;;;;;;;;;5042311;28;20094;-80
2023/07/02 01:49:14;;;;;;;0.20;0.10;;;;;;;;;;5029158;28;20317;-81
2023/07/02 01:51:40;;;;;;;0.20;0.20;;;;;;;;;;5026369;28;20041;-80
2023/07/02 01:54:06;;;;;;;0.20;0.10;;;;;;;;;;5031157;28;20113;-81
2023/07/02 01:56:32;;;;;;;0.20;0.10;;;;;;;;;;5048824;28;20040;-81
2023/07/02 01:58:58;;;;;;;0.20;0.10;;;;;;;;;;5044077;28;20146;-81
2023/07/02 02:01:24;;;;;;;0.20;0.10;;;;;;;;;;5033857;28;20036;-81
2023/07/02 02:03:50;;;;;;;0.20;0.10;;;;;;;;;;5053672;28;20048;-81
2023/07/02 02:06:16;;;;;;;0.20;0.20;;;;;;;;;;5046597;28;20044;-81
2023/07/02 02:08:42;;;;;;;0.20;0.10;;;;;;;;;;5033422;28;20521;-80
2023/07/02 02:11:09;;;;;;;0.20;0.10;;;;;;;;;;5031913;28;20041;-82
2023/07/02 02:13:35;;;;;;;0.20;0.08;;;;;;;;;;5047777;28;20066;-83
2023/07/02 02:16:01;;;;;;;0.90;0.40;;;;;;;;;;5041367;28;20551;-80
2023/07/02 02:18:27;;;;;;;0.22;0.20;;;;;;;;;;5048380;28;20029;-80
2023/07/02 02:20:53;;;;;;;0.20;0.10;;;;;;;;;;5063783;28;20508;-81
2023/07/02 02:23:19;;;;;;;0.20;0.10;;;;;;;;;;5031143;28;20068;-81
2023/07/02 02:25:45;;;;;;;0.43;0.25;;;;;;;;;;5024929;28;20037;-81
2023/07/02 02:28:11;;;;;;;0.20;0.10;;;;;;;;;;5025510;28;20092;-80
2023/07/02 02:30:37;;;;;;;0.20;0.10;;;;;;;;;;5049262;28;20115;-80
2023/07/02 02:33:03;;;;;;;0.35;0.25;;;;;;;;;;5030591;28;20028;-80
2023/07/02 02:35:29;;;;;;;0.30;0.20;;;;;;;;;;5024400;28;20323;-80
2023/07/02 02:37:55;;;;;;;0.20;0.10;;;;;;;;;;5053010;28;20483;-80
2023/07/02 02:40:21;;;;;;;0.20;0.10;;;;;;;;;;5052929;28;20147;-79
2023/07/02 02:42:47;;;;;;;0.20;0.10;;;;;;;;;;5030309;28;20041;-81
2023/07/02 02:45:14;;;;;;;0.20;0.10;;;;;;;;;;5030910;28;20040;-80
2023/07/02 02:47:40;;;;;;;0.20;0.10;;;;;;;;;;5044857;28;20048;-80
2023/07/02 02:50:06;;;;;;;0.20;0.10;;;;;;;;;;5045669;28;20654;-81
2023/07/02 02:52:32;;;;;;;0.20;0.10;;;;;;;;;;5046446;28;20127;-83
2023/07/02 02:54:58;;;;;;;0.30;0.20;;;;;;;;;;5042060;28;20036;-81
2023/07/02 02:57:24;;;;;;;0.20;0.20;;;;;;;;;;5038327;28;20043;-81
2023/07/02 02:59:50;;;;;;;1.10;0.28;;;;;;;;;;5029735;28;20037;-79
2023/07/02 03:02:16;;;;;;;0.20;0.10;;;;;;;;;;5044069;28;20060;-81
2023/07/02 03:04:44;;;;;;;0.55;0.52;;;;;;;;;;5044353;28;20484;-83
2023/07/02 03:07:10;;;;;;;0.30;0.30;;;;;;;;;;5018223;28;20410;-81
2023/07/02 03:09:36;;;;;;;0.20;0.10;;;;;;;;;;5025288;28;20044;-80
2023/07/02 03:12:02;;;;;;;0.32;0.30;;;;;;;;;;5052603;28;20048;-80
2023/07/02 03:14:28;;;;;;;0.30;0.20;;;;;;;;;;5033085;28;20040;-82
2023/07/02 03:16:54;;;;;;;0.20;0.00;;;;;;;;;;5031779;28;20094;-81
2023/07/02 03:19:20;;;;;;;1.27;0.88;;;;;;;;;;5027171;28;20041;-80
2023/07/02 03:21:46;;;;;;;0.30;0.25;;;;;;;;;;5054568;28;20039;-81
2023/07/02 03:24:13;;;;;;;0.20;0.10;;;;;;;;;;5034526;28;20037;-82
2023/07/02 03:26:48;;;;;;;0.30;0.20;;;;;;;;;;5045368;28;20059;-81
2023/07/02 03:29:14;;;;;;;0.22;0.10;;;;;;;;;;5045307;28;20469;-81
2023/07/02 03:31:40;;;;;;;0.20;0.13;;;;;;;;;;5034106;28;20319;-81
2023/07/02 03:34:10;;;;;;;0.20;0.10;;;;;;;;;;5045708;28;20036;-83
2023/07/02 03:36:36;;;;;;;0.20;0.10;;;;;;;;;;5048795;28;20068;-84
2023/07/02 03:39:03;;;;;;;0.20;0.17;;;;;;;;;;5042499;28;20048;-81
2023/07/02 03:41:29;;;;;;;0.20;0.10;;;;;;;;;;5031940;28;20520;-80
2023/07/02 03:43:55;;;;;;;0.20;0.10;;;;;;;;;;5026912;28;20040;-83
2023/07/02 03:46:21;;;;;;;0.28;0.25;;;;;;;;;;5034257;28;20044;-83
2023/07/02 03:48:47;;;;;;;0.47;0.47;;;;;;;;;;5032902;28;20055;-81
2023/07/02 03:51:14;;;;;;;0.20;0.10;;;;;;;;;;5045446;28;20037;-80
2023/07/02 03:53:43;;;;;;;0.32;0.15;;;;;;;;;;5046279;28;20509;-82
2023/07/02 03:56:09;;;;;;;0.20;0.10;;;;;;;;;;5046648;28;20652;-80
2023/07/02 03:58:35;;;;;;;0.20;0.10;;;;;;;;;;5043420;28;20040;-81
2023/07/02 04:01:01;;;;;;;0.20;0.10;;;;;;;;;;5045322;28;20024;-80
2023/07/02 04:03:27;;;;;;;0.30;0.30;;;;;;;;;;5040853;28;20057;-80
2023/07/02 04:05:53;;;;;;;0.20;0.10;;;;;;;;;;5038833;28;20041;-80
2023/07/02 04:08:20;;;;;;;0.45;0.45;;;;;;;;;;5042510;28;20040;-81
2023/07/02 04:10:47;;;;;;;0.30;0.30;;;;;;;;;;5028820;28;20029;-81
2023/07/02 04:13:13;;;;;;;0.35;0.22;;;;;;;;;;5039930;28;20638;-81
2023/07/02 04:15:39;;;;;;;0.20;0.10;;;;;;;;;;5015453;28;20668;-81
2023/07/02 04:18:05;;;;;;;0.20;0.10;;;;;;;;;;5031475;28;20033;-80
2023/07/02 04:20:31;;;;;;;0.40;0.35;;;;;;;;;;5049668;28;20041;-80
2023/07/02 04:22:57;;;;;;;0.20;0.10;;;;;;;;;;5047887;28;20033;-81
2023/07/02 04:25:23;;;;;;;0.20;0.20;;;;;;;;;;5025401;28;20050;-82
2023/07/02 04:27:49;;;;;;;0.20;0.20;;;;;;;;;;5024875;28;20048;-80
2023/07/02 04:30:15;;;;;;;0.28;0.13;;;;;;;;;;5029708;28;20043;-81
2023/07/02 04:32:41;;;;;;;0.45;0.25;;;;;;;;;;5020472;28;20313;-82
2023/07/02 04:35:11;;;;;;;0.20;0.10;;;;;;;;;;5053339;28;20264;-83
2023/07/02 04:37:37;;;;;;;0.45;0.45;;;;;;;;;;5019736;28;20037;-80
2023/07/02 04:40:09;;;;;;;0.40;0.40;;;;;;;;;;5043024;28;20044;-81
2023/07/02 04:42:37;;;;;;;0.20;0.20;;;;;;;;;;5043839;28;20170;-83
2023/07/02 04:45:04;;;;;;;0.28;0.25;;;;;;;;;;5025540;28;20040;-84
2023/07/02 04:47:30;;;;;;;0.50;0.45;;;;;;;;;;5022242;28;20051;-80
2023/07/02 04:49:57;;;;;;;0.20;0.10;;;;;;;;;;5027349;28;20044;-80
2023/07/02 04:52:23;;;;;;;0.47;0.40;;;;;;;;;;5032293;28;20512;-81
2023/07/02 04:54:49;;;;;;;0.20;0.20;;;;;;;;;;5033721;28;20052;-79
2023/07/02 04:57:15;;;;;;;0.20;0.00;;;;;;;;;;5022954;28;20047;-82
2023/07/02 04:59:45;;;;;;;0.20;0.10;;;;;;;;;;5043362;28;20036;-84
2023/07/02 05:02:14;;;;;;;0.28;0.28;;;;;;;;;;5016345;28;20052;-82
2023/07/02 05:04:40;;;;;;;0.20;0.10;;;;;;;;;;5037949;28;20040;-81
2023/07/02 05:07:06;;;;;;;0.20;0.10;;;;;;;;;;5041195;28;20052;-81
2023/07/02 05:09:32;;;;;;;0.47;0.22;;;;;;;;;;5036170;28;20040;-82
2023/07/02 05:11:58;;;;;;;0.20;0.00;;;;;;;;;;5043580;28;20040;-81
2023/07/02 05:14:24;;;;;;;0.20;0.20;;;;;;;;;;5020731;28;20048;-81
2023/07/02 05:16:50;;;;;;;0.40;0.40;;;;;;;;;;5029421;28;20033;-83
2023/07/02 05:19:16;;;;;;;0.20;0.10;;;;;;;;;;5044128;28;20060;-80
2023/07/02 05:21:42;;;;;;;0.20;0.10;;;;;;;;;;5040677;28;20043;-85
2023/07/02 05:24:09;;;;;;;0.20;0.00;;;;;;;;;;5031295;28;20044;-84
2023/07/02 05:26:35;;;;;;;0.25;0.25;;;;;;;;;;5031844;28;20052;-83
2023/07/02 05:29:02;;;;;;;0.20;0.10;;;;;;;;;;5039588;28;20163;-85
2023/07/02 05:31:28;;;;;;;0.20;0.10;;;;;;;;;;5036647;28;20424;-82
2023/07/02 05:33:54;;;;;;;0.75;0.30;;;;;;;;;;5042624;28;20165;-83
2023/07/02 05:36:21;;;;;;;0.30;0.30;;;;;;;;;;5049295;28;20033;-81
2023/07/02 05:38:47;;;;;;;0.20;0.10;;;;;;;;;;5033539;28;20029;-84
2023/07/02 05:41:22;;;;;;;0.20;0.10;;;;;;;;;;5045549;28;20270;-84
2023/07/02 05:43:48;;;;;;;0.20;0.10;;;;;;;;;;5042922;28;20036;-85
2023/07/02 05:46:15;;;;;;;0.20;0.10;;;;;;;;;;5042567;28;20127;-83
2023/07/02 05:48:41;;;;;;;0.20;0.10;;;;;;;;;;5033405;28;20049;-84
2023/07/02 05:51:08;;;;;;;0.20;0.10;;;;;;;;;;5042118;28;20036;-83
2023/07/02 05:53:34;;;;;;;0.22;0.20;;;;;;;;;;5039196;28;20045;-83
2023/07/02 05:56:00;;;;;;;0.30;0.10;;;;;;;;;;5018389;28;20399;-85
2023/07/02 05:58:26;;;;;;;0.20;0.10;;;;;;;;;;5040677;28;20036;-86
2023/07/02 06:00:52;;;;;;;0.85;0.38;;;;;;;;;;5021553;28;20496;-83
2023/07/02 06:03:20;;;;;;;1.65;0.80;;;;;;;;;;5044496;28;20473;-81
2023/07/02 06:05:47;;;;;;;0.20;0.10;;;;;;;;;;5035272;28;20036;-83
2023/07/02 06:08:13;;;;;;;0.50;0.50;;;;;;;;;;5037286;28;20036;-82
2023/07/02 06:10:39;;;;;;;0.20;0.10;;;;;;;;;;5047113;28;20048;-81
2023/07/02 06:13:05;;;;;;;0.20;0.10;;;;;;;;;;5021922;28;20506;-83
2023/07/02 06:15:31;;;;;;;0.20;0.20;;;;;;;;;;5022352;28;20043;-82
2023/07/02 06:17:57;;;;;;;0.28;0.28;;;;;;;;;;5014265;28;20307;-82
2023/07/02 06:20:23;;;;;;;0.38;0.38;;;;;;;;;;5041623;28;20039;-84
2023/07/02 06:22:49;;;;;;;2.08;0.77;;;;;;;;;;5024006;28;20222;-83
2023/07/02 06:25:15;;;;;;;0.20;0.15;;;;;;;;;;5024055;28;20553;-84
2023/07/02 06:27:41;;;;;;;0.20;0.08;;;;;;;;;;5023651;28;20119;-82
2023/07/02 06:30:07;;;;;;;0.68;0.52;;;;;;;;;;5041674;28;20048;-82
2023/07/02 06:32:33;;;;;;;0.20;0.20;;;;;;;;;;5027416;28;20040;-84
2023/07/02 06:35:00;;;;;;;0.35;0.35;;;;;;;;;;5025583;28;20033;-83
2023/07/02 06:37:26;;;;;;;0.28;0.28;;;;;;;;;;5024605;28;20112;-80
2023/07/02 06:39:52;;;;;;;0.20;0.17;;;;;;;;;;5026207;28;20364;-83
2023/07/02 06:42:18;;;;;;;0.20;0.10;;;;;;;;;;5035520;28;20037;-88
2023/07/02 06:44:44;;;;;;;0.30;0.30;;;;;;;;;;5025515;28;20046;-83
2023/07/02 06:47:10;;;;;;;0.20;0.08;;;;;;;;;;5038244;28;20032;-83
2023/07/02 06:49:37;;;;;;;0.20;0.10;;;;;;;;;;5035668;28;20330;-85
2023/07/02 06:52:03;;;;;;;0.40;0.40;;;;;;;;;;5056172;28;20595;-84
2023/07/02 06:54:29;;;;;;;0.30;0.30;;;;;;;;;;5022220;28;20048;-86
2023/07/02 06:56:55;;;;;;;0.28;0.20;;;;;;;;;;5038883;28;20110;-84
2023/07/02 06:59:22;;;;;;;0.20;0.10;;;;;;;;;;5043774;28;20403;-84
2023/07/02 07:01:48;;;;;;;0.55;0.55;;;;;;;;;;5027730;28;20050;-85
2023/07/02 07:04:14;;;;;;;0.20;0.20;;;;;;;;;;5025823;28;20037;-82
2023/07/02 07:06:44;;;;;;;0.20;0.20;;;;;;;;;;5049316;28;20557;-86
2023/07/02 07:09:12;;;;;;;0.57;0.57;;;;;;;;;;5046687;28;20587;-87
2023/07/02 07:11:44;;;;;;;1.20;0.63;;;;;;;;;;5024110;28;20059;-85
2023/07/02 07:14:10;;;;;;;0.20;0.10;;;;;;;;;;5043375;28;20179;-84
2023/07/02 07:16:36;;;;;;;2.08;0.43;;;;;;;;;;5028416;28;20028;-81
2023/07/02 07:19:03;;;;;;;0.28;0.28;;;;;;;;;;5062359;28;20040;-84
2023/07/02 07:21:32;;;;;;;0.20;0.20;;;;;;;;;;5031272;28;20040;-82
2023/07/02 07:23:58;;;;;;;0.20;0.10;;;;;;;;;;5044058;22;20044;-84
2023/07/02 07:26:24;;;;;;;0.20;0.10;;;;;;;;;;5023909;28;20070;-82
2023/07/02 07:28:50;;;;;;;0.20;0.17;;;;;;;;;;5021899;28;20422;-83
2023/07/02 07:31:16;;;;;;;0.52;0.47;;;;;;;;;;5022994;28;20485;-83
2023/07/02 07:33:42;;;;;;;0.20;0.10;;;;;;;;;;5020241;28;20169;-80
2023/07/02 07:36:08;;;;;;;0.25;0.22;;;;;;;;;;5023073;28;20099;-81
2023/07/02 07:38:34;;;;;;;0.20;0.10;;;;;;;;;;5019941;28;20489;-81
2023/07/02 07:41:00;;;;;;;0.20;0.10;;;;;;;;;;5006919;28;20041;-79
2023/07/02 07:43:26;;;;;;;0.30;0.20;;;;;;;;;;5038421;28;20341;-80
2023/07/02 07:45:52;;;;;;;0.20;0.05;;;;;;;;;;5006729;28;20413;-81
2023/07/02 07:48:18;;;;;;;0.20;0.20;;;;;;;;;;5022099;28;20029;-85
2023/07/02 07:50:44;;;;;;;0.20;0.10;;;;;;;;;;4999394;28;20033;-84
2023/07/02 07:53:10;;;;;;;0.20;0.20;;;;;;;;;;5008282;28;20041;-81
2023/07/02 07:55:36;;;;;;;0.30;0.30;;;;;;;;;;5015793;28;20037;-81
2023/07/02 07:58:02;;;;;;;0.20;0.10;;;;;;;;;;5019648;28;21391;-84
2023/07/02 08:00:28;;;;;;;0.20;0.10;;;;;;;;;;5006711;28;20292;-82
2023/07/02 08:02:55;;;;;;;0.20;0.20;;;;;;;;;;5022466;28;20501;-83
2023/07/02 08:05:21;;;;;;;0.20;0.10;;;;;;;;;;5017329;28;20060;-81
2023/07/02 08:07:47;;;;;;;0.20;0.10;;;;;;;;;;5017455;28;20037;-82
2023/07/02 08:10:13;;;;;;;0.25;0.15;;;;;;;;;;5019154;28;20601;-82
2023/07/02 08:12:39;;;;;;;0.70;0.70;;;;;;;;;;5006081;28;20045;-79
2023/07/02 08:15:06;;;;;;;0.40;0.22;;;;;;;;;;5017265;28;20029;-83
2023/07/02 08:17:32;;;;;;;0.20;0.10;;;;;;;;;;5022175;28;20120;-84
2023/07/02 08:19:58;;;;;;;0.20;0.10;;;;;;;;;;5008174;28;20033;-83
2023/07/02 08:22:24;;;;;;;0.20;0.10;;;;;;;;;;5008029;28;20037;-84
2023/07/02 08:24:50;;;;;;;0.20;0.10;;;;;;;;;;5022594;28;20079;-82
2023/07/02 08:27:19;;;;;;;0.20;0.20;;;;;;;;;;5001501;28;20432;-82
2023/07/02 08:29:45;;;;;;;0.20;0.10;;;;;;;;;;5024294;28;20049;-81
2023/07/02 08:32:11;;;;;;;0.28;0.25;;;;;;;;;;5020412;28;20102;-83
2023/07/02 08:34:37;;;;;;;0.20;0.20;;;;;;;;;;5006152;28;20037;-81
2023/07/02 08:37:03;;;;;;;0.20;0.10;;;;;;;;;;5001417;28;20045;-83
2023/07/02 08:39:29;;;;;;;0.20;0.10;;;;;;;;;;5007634;28;20061;-81
2023/07/02 08:41:56;;;;;;;0.20;0.10;;;;;;;;;;5015652;28;20103;-82
2023/07/02 08:44:22;;;;;;;0.20;0.15;;;;;;;;;;5019033;28;20408;-81
2023/07/02 08:46:53;;;;;;;0.20;0.10;;;;;;;;;;5021029;28;20047;-80
2023/07/02 08:49:19;;;;;;;0.20;0.10;;;;;;;;;;5001275;28;20041;-80
2023/07/02 08:51:46;;;;;;;0.20;0.10;;;;;;;;;;5000322;28;20049;-84
2023/07/02 08:54:12;;;;;;;0.20;0.10;;;;;;;;;;4997614;28;20037;-82
2023/07/02 08:56:39;;;;;;;0.45;0.45;;;;;;;;;;5001519;28;20041;-79
2023/07/02 08:59:07;;;;;;;0.25;0.25;;;;;;;;;;5023045;28;20512;-84
2023/07/02 09:01:33;;;;;;;0.20;0.10;;;;;;;;;;5005656;28;20618;-81
2023/07/02 09:04:02;;;;;;;0.20;0.10;;;;;;;;;;5012992;28;20564;-79
2023/07/02 09:06:28;;;;;;;0.20;0.10;;;;;;;;;;5004466;28;20048;-80
2023/07/02 09:09:03;;;;;;;0.20;0.10;;;;;;;;;;5004708;28;20236;-81
2023/07/02 09:11:29;;;;;;;3.60;0.20;;;;;;;;;;5008977;28;20127;-82
2023/07/02 09:14:00;;;;;;;0.20;0.10;;;;;;;;;;5007483;28;20478;-81
2023/07/02 09:16:26;;;;;;;0.20;0.10;;;;;;;;;;5002447;28;20036;-82
2023/07/02 09:18:58;;;;;;;1.83;0.68;;;;;;;;;;5018816;28;20036;-83
2023/07/02 09:21:26;;;;;;;0.20;0.13;;;;;;;;;;5002702;28;20480;-79
2023/07/02 09:23:52;;;;;;;0.25;0.20;;;;;;;;;;5008131;28;20401;-81
2023/07/02 09:26:22;;;;;;;0.20;0.10;;;;;;;;;;5002627;28;20045;-82
2023/07/02 09:28:48;;;;;;;0.38;0.30;;;;;;;;;;5019355;28;20037;-82
2023/07/02 09:31:14;;;;;;;0.35;0.25;;;;;;;;;;5003717;28;20045;-82
2023/07/02 09:33:40;;;;;;;0.20;0.20;;;;;;;;;;5003481;28;20041;-81
2023/07/02 09:36:06;;;;;;;0.20;0.10;;;;;;;;;;5018167;28;20041;-80
2023/07/02 09:38:32;;;;;;;0.20;0.10;;;;;;;;;;5005743;28;20056;-84
2023/07/02 09:40:59;;;;;;;0.20;0.20;;;;;;;;;;5021126;28;20041;-81
2023/07/02 09:43:26;;;;;;;0.20;0.10;;;;;;;;;;5020922;28;20036;-83
2023/07/02 09:45:56;;;;;;;0.20;0.10;;;;;;;;;;5004858;28;20037;-81
2023/07/02 09:48:25;;;;;;;0.20;0.10;;;;;;;;;;5003156;28;20406;-81
2023/07/02 09:50:51;;;;;;;0.20;0.10;;;;;;;;;;5017636;28;20535;-80
2023/07/02 09:53:17;;;;;;;0.28;0.28;;;;;;;;;;5020952;28;20037;-79
2023/07/02 09:55:44;;;;;;;0.20;0.10;;;;;;;;;;5013475;28;20033;-82
2023/07/02 09:58:11;;;;;;;0.20;0.20;;;;;;;;;;5017950;28;20037;-84
2023/07/02 10:00:38;;;;;;;0.20;0.10;;;;;;;;;;5005120;28;20037;-83
2023/07/02 10:03:04;;;;;;;2.05;1.27;;;;;;;;;;5005582;28;20034;-81
2023/07/02 10:05:31;;;;;;;0.47;0.20;;;;;;;;;;5005244;28;20033;-81
2023/07/02 10:07:57;;;;;;;0.20;0.10;;;;;;;;;;5012502;28;20265;-81
2023/07/02 10:10:27;;;;;;;0.20;0.15;;;;;;;;;;5002726;28;20037;-80
2023/07/02 10:12:54;;;;;;;0.20;0.17;;;;;;;;;;5011401;28;20122;-81
2023/07/02 10:15:27;;;;;;;0.47;0.45;;;;;;;;;;5004462;28;20451;-84
2023/07/02 10:17:57;;;;;;;0.20;0.10;;;;;;;;;;5025071;28;20041;-82
2023/07/02 10:20:36;;;;;;;1.08;0.35;;;;;;;;;;5011446;28;20037;-82
2023/07/02 10:23:03;;;;;;;0.20;0.10;;;;;;;;;;5026865;28;20098;-83
2023/07/02 10:25:30;;;;;;;0.20;0.10;;;;;;;;;;5003099;28;20441;-81
2023/07/02 10:27:56;;;;;;;0.30;0.15;;;;;;;;;;5009035;28;20045;-81
2023/07/02 10:30:43;;;;;;;0.20;0.10;;;;;;;;;;5024020;28;20525;-81
2023/07/02 10:33:12;;;;;;;0.20;0.10;;;;;;;;;;5000285;28;20068;-80
2023/07/02 10:35:39;;;;;;;0.20;0.17;;;;;;;;;;5022534;28;20037;-82
2023/07/02 10:38:06;;;;;;;0.20;0.10;;;;;;;;;;5009978;28;20041;-83
2023/07/02 10:40:33;;;;;;;0.20;0.15;;;;;;;;;;5004525;28;20037;-81
2023/07/02 10:42:59;;;;;;;0.20;0.10;;;;;;;;;;5024215;28;20053;-82
2023/07/02 10:45:32;;;;;;;0.20;0.10;;;;;;;;;;5039725;28;20286;-82
2023/07/02 10:47:58;;;;;;;0.25;0.20;;;;;;;;;;5009716;28;20071;-80
2023/07/02 10:50:25;;;;;;;0.20;0.10;;;;;;;;;;5003969;28;20037;-81
2023/07/02 10:52:51;;;;;;;0.40;0.32;;;;;;;;;;5021637;28;20172;-82
2023/07/02 10:55:21;;;;;;;0.93;0.30;;;;;;;;;;5007808;28;20322;-82
2023/07/02 10:57:48;;;;;;;1.08;0.98;;;;;;;;;;5009218;28;20094;-82
2023/07/02 11:00:14;;;;;;;0.60;0.60;;;;;;;;;;5011071;28;20045;-80
2023/07/02 11:02:41;;;;;;;1.48;1.38;;;;;;;;;;5022320;28;20033;-82
2023/07/02 11:05:11;;;;;;;0.80;0.80;;;;;;;;;;5022815;28;20041;-82
2023/07/02 11:07:38;;;;;;;0.20;0.10;;;;;;;;;;5007143;28;20041;-80
2023/07/02 11:10:04;;;;;;;1.85;0.45;;;;;;;;;;5010712;28;20041;-79
2023/07/02 11:12:31;;;;;;;0.20;0.10;;;;;;;;;;5021597;28;20342;-80
2023/07/02 11:15:08;;;;;;;2.92;1.27;;;;;;;;;;5002253;28;20073;-80
2023/07/02 11:17:34;;;;;;;0.20;0.10;;;;;;;;;;5008280;28;20044;-82
2023/07/02 11:20:00;;;;;;;1.27;0.57;;;;;;;;;;5008969;28;20099;-79
2023/07/02 11:22:37;;;;;;;0.20;0.10;;;;;;;;;;5019560;28;20121;-80
2023/07/02 11:25:22;;;;;;;0.20;0.10;;;;;;;;;;5021551;28;20044;-83
2023/07/02 11:27:48;;;;;;;0.20;0.10;;;;;;;;;;5019469;28;20049;-83
2023/07/02 11:30:14;;;;;;;0.20;0.10;;;;;;;;;;5021187;28;20072;-81
2023/07/02 11:32:49;;;;;;;0.30;0.30;;;;;;;;;;5008663;28;20045;-81
2023/07/02 11:35:16;;;;;;;0.20;0.10;;;;;;;;;;5008026;28;20057;-77
2023/07/02 11:37:42;;;;;;;0.40;0.40;;;;;;;;;;5006059;28;20045;-80
2023/07/02 11:40:08;;;;;;;1.00;0.55;;;;;;;;;;5021545;28;20398;-85
2023/07/02 11:42:34;;;;;;;0.20;0.10;;;;;;;;;;5008050;28;20548;-77
2023/07/02 11:45:00;;;;;;;0.25;0.25;;;;;;;;;;5024328;28;20402;-84
2023/07/02 11:47:27;;;;;;;0.25;0.17;;;;;;;;;;5007763;28;20487;-84
2023/07/02 11:49:54;;;;;;;0.20;0.20;;;;;;;;;;5004019;28;20052;-81
2023/07/02 11:52:21;;;;;;;0.28;0.28;;;;;;;;;;5025026;28;20047;-83
2023/07/02 11:54:47;;;;;;;0.20;0.15;;;;;;;;;;5024071;28;20033;-84
2023/07/02 11:57:13;;;;;;;0.32;0.32;;;;;;;;;;5010662;28;20044;-85
2023/07/02 11:59:39;;;;;;;0.20;0.10;;;;;;;;;;5022486;28;20454;-81
2023/07/02 12:02:06;;;;;;;0.20;0.10;;;;;;;;;;5022596;28;20265;-82
2023/07/02 12:04:32;;;;;;;0.20;0.10;;;;;;;;;;5020647;28;20231;-81
2023/07/02 12:06:58;;;;;;;0.20;0.10;;;;;;;;;;5015829;28;20037;-79
2023/07/02 12:09:24;;;;;;;0.20;0.13;;;;;;;;;;5009129;28;20040;-80
2023/07/02 12:11:50;;;;;;;0.20;0.10;;;;;;;;;;5020002;28;20049;-83
2023/07/02 12:14:16;;;;;;;0.20;0.10;;;;;;;;;;5003889;28;20519;-85
2023/07/02 12:16:42;;;;;;;0.20;0.10;;;;;;;;;;5019910;28;20513;-78
2023/07/02 12:19:08;;;;;;;0.22;0.15;;;;;;;;;;5023943;28;20449;-83
2023/07/02 12:21:34;;;;;;;0.75;0.75;;;;;;;;;;5026297;28;20041;-81
2023/07/02 12:24:00;;;;;;;0.65;0.65;;;;;;;;;;5023381;28;20091;-81
2023/07/02 12:26:26;;;;;;;0.60;0.35;;;;;;;;;;5008568;28;20041;-81
2023/07/02 12:28:52;;;;;;;0.20;0.10;;;;;;;;;;5014961;28;20049;-78
2023/07/02 12:31:18;;;;;;;0.20;0.10;;;;;;;;;;5021749;28;20277;-82
2023/07/02 12:33:44;;;;;;;0.20;0.10;;;;;;;;;;5021981;28;20449;-81
2023/07/02 12:36:10;;;;;;;0.20;0.10;;;;;;;;;;5021968;28;20044;-81
2023/07/02 12:38:36;;;;;;;2.08;1.13;;;;;;;;;;5024752;28;20345;-83
2023/07/02 12:41:02;;;;;;;1.48;0.85;;;;;;;;;;5025307;28;20101;-81
2023/07/02 12:43:28;;;;;;;0.20;0.20;;;;;;;;;;5030960;28;20421;-82
2023/07/02 12:45:54;;;;;;;0.20;0.10;;;;;;;;;;5013858;28;20052;-80
2023/07/02 12:48:20;;;;;;;0.20;0.10;;;;;;;;;;5032954;28;20041;-78
2023/07/02 12:51:00;;;;;;;0.20;0.10;;;;;;;;;;5046788;28;20059;-81
2023/07/02 12:53:26;;;;;;;0.20;0.10;;;;;;;;;;5029779;28;21417;-81
2023/07/02 12:55:52;;;;;;;0.20;0.10;;;;;;;;;;5025656;28;20045;-81
2023/07/02 12:58:18;;;;;;;0.20;0.10;;;;;;;;;;5009410;28;20037;-80
2023/07/02 13:00:45;;;;;;;0.20;0.10;;;;;;;;;;5044249;28;20146;-81
2023/07/02 13:03:12;;;;;;;0.20;0.00;;;;;;;;;;5031693;28;20067;-82
2023/07/02 13:05:38;;;;;;;0.20;0.10;;;;;;;;;;5041334;28;20669;-80
2023/07/02 13:08:04;;;;;;;0.20;0.10;;;;;;;;;;5025850;28;20072;-82
2023/07/02 13:10:30;;;;;;;0.20;0.20;;;;;;;;;;5017548;28;20034;-80
2023/07/02 13:12:57;;;;;;;0.30;0.25;;;;;;;;;;5020204;28;20048;-83
2023/07/02 13:15:23;;;;;;;0.28;0.17;;;;;;;;;;5001513;28;20044;-81
2023/07/02 13:17:50;;;;;;;0.20;0.10;;;;;;;;;;5015318;28;20060;-83
2023/07/02 13:20:16;;;;;;;0.20;0.10;;;;;;;;;;5017978;28;20037;-81
2023/07/02 13:22:43;;;;;;;0.20;0.10;;;;;;;;;;5021900;28;20037;-81
2023/07/02 13:25:09;;;;;;;0.20;0.20;;;;;;;;;;5038677;22;20401;-83
2023/07/02 13:27:38;;;;;;;0.20;0.05;;;;;;;;;;5018642;28;20101;-82
2023/07/02 13:30:10;;;;;;;0.20;0.10;;;;;;;;;;5016607;28;20208;-81
2023/07/02 13:32:36;;;;;;;;;;;;;;;;;;5030828;28;20037;-80
2023/07/02 13:35:05;;;;;;;0.30;0.25;;;;;;;;;;5023816;28;19928;-84
2023/07/02 13:37:31;;;;;;;0.20;0.10;;;;;;;;;;5003198;28;20052;-81
2023/07/02 13:39:57;;;;;;;0.30;0.30;;;;;;;;;;5002565;28;20419;-80
2023/07/02 13:42:23;;;;;;;0.65;0.65;;;;;;;;;;5021416;28;20038;-83
2023/07/02 13:44:49;;;;;;;0.20;0.15;;;;;;;;;;5005014;28;20041;-82
2023/07/02 13:47:15;;;;;;;0.20;0.10;;;;;;;;;;5017915;28;21454;-84
2023/07/02 13:49:41;;;;;;;1.05;0.90;;;;;;;;;;5008030;28;20049;-84
2023/07/02 13:52:07;;;;;;;0.20;0.15;;;;;;;;;;5000645;28;20050;-81
2023/07/02 13:54:33;;;;;;;0.20;0.15;;;;;;;;;;5005020;28;20033;-82
2023/07/02 13:56:59;;;;;;;0.88;0.85;;;;;;;;;;4999755;28;20046;-81
2023/07/02 13:59:26;;;;;;;5.50;0.35;;;;;;;;;;5001648;28;20473;-85
2023/07/02 14:01:52;;;;;;;0.20;0.10;;;;;;;;;;5003161;28;20414;-81
2023/07/02 14:04:19;;;;;;;0.20;0.10;;;;;;;;;;5005377;28;20044;-84
2023/07/02 14:06:45;;;;;;;0.20;0.10;;;;;;;;;;5000561;28;20537;-81
2023/07/02 14:09:11;;;;;;;1.15;1.05;;;;;;;;;;5015607;28;20050;-83
2023/07/02 14:11:38;;;;;;;0.20;0.10;;;;;;;;;;5004646;28;20069;-83
2023/07/02 14:14:05;;;;;;;0.20;0.20;;;;;;;;;;5010916;28;20197;-84
2023/07/02 14:16:31;;;;;;;0.20;0.10;;;;;;;;;;5021325;28;20029;-84
2023/07/02 14:18:57;;;;;;;0.50;0.50;;;;;;;;;;5016332;28;20041;-82
2023/07/02 14:21:24;;;;;;;0.30;0.15;;;;;;;;;;5017896;28;20029;-80
2023/07/02 14:23:50;;;;;;;0.20;0.10;;;;;;;;;;5003473;28;20046;-82
2023/07/02 14:26:16;;;;;;;0.20;0.15;;;;;;;;;;5003291;28;21137;-82
2023/07/02 14:28:42;;;;;;;0.40;0.40;;;;;;;;;;5004985;28;20397;-80
2023/07/02 14:31:08;;;;;;;0.30;0.10;;;;;;;;;;5018582;28;20521;-81
2023/07/02 14:33:35;;;;;;;0.20;0.20;;;;;;;;;;5020993;28;20068;-82
2023/07/02 14:36:02;;;;;;;2.05;1.40;;;;;;;;;;5019946;28;20041;-82
2023/07/02 14:38:28;;;;;;;0.20;0.10;;;;;;;;;;5020942;28;20042;-85
2023/07/02 14:40:55;;;;;;;0.20;0.10;;;;;;;;;;4997103;28;20040;-85